Time;durP1;ratioP1;P1;durP2;ratioP2;P2;SDS_P1;SDS_P2;PMS_P1;PMS_P2;Temp;Humidity;BMP_temperature;BMP_pressure;BME280_temperature;BME280_humidity;BME280_pressure;Samples;Min_cycle;Max_cycle;Signal;HPM_P1;HPM_P2
2021/06/03 00:00:56;;;;;;;29.27;27.47;;;18.60;65.20;;;;;;5052539;28;21054;-79
2021/06/03 00:03:25;;;;;;;29.67;27.73;;;18.60;65.30;;;;;;5064731;28;21049;-79
2021/06/03 00:05:54;;;;;;;29.70;28.00;;;18.60;65.30;;;;;;5052001;28;20454;-79
2021/06/03 00:08:23;;;;;;;29.60;27.90;;;18.60;65.20;;;;;;5048665;28;20474;-79
2021/06/03 00:10:53;;;;;;;29.87;28.17;;;18.50;65.20;;;;;;5051232;28;20462;-79
2021/06/03 00:13:20;;;;;;;30.03;28.23;;;18.50;65.40;;;;;;5064425;28;20485;-79
2021/06/03 00:15:47;;;;;;;29.57;27.77;;;18.50;65.40;;;;;;5049836;28;20511;-79
2021/06/03 00:18:14;;;;;;;30.20;28.30;;;18.50;65.60;;;;;;5051544;28;20576;-79
2021/06/03 00:20:42;;;;;;;29.73;27.83;;;18.50;65.60;;;;;;5063900;28;20476;-79
2021/06/03 00:23:08;;;;;;;28.87;27.17;;;18.40;66.10;;;;;;5064060;28;20484;-79
2021/06/03 00:25:36;;;;;;;29.33;27.63;;;18.30;66.10;;;;;;5063319;28;20493;-79
2021/06/03 00:28:03;;;;;;;30.23;28.43;;;18.30;66.40;;;;;;5063237;28;20563;-79
2021/06/03 00:30:30;;;;;;;29.90;28.03;;;18.20;66.80;;;;;;5046706;28;20446;-79
2021/06/03 00:32:56;;;;;;;30.90;28.90;;;18.10;67.20;;;;;;5045205;28;21022;-79
2021/06/03 00:35:23;;;;;;;29.80;28.00;;;18.10;67.40;;;;;;5046901;28;20453;-79
2021/06/03 00:37:51;;;;;;;29.67;27.90;;;18.00;67.60;;;;;;5046684;28;20485;-79
2021/06/03 00:40:19;;;;;;;30.60;28.80;;;18.10;67.40;;;;;;5055384;28;20485;-79
2021/06/03 00:42:45;;;;;;;30.00;28.20;;;18.10;67.60;;;;;;5061760;28;20544;-79
2021/06/03 00:45:15;;;;;;;30.30;28.13;;;17.90;68.40;;;;;;5064820;28;20569;-79
2021/06/03 00:47:42;;;;;;;29.83;28.13;;;17.80;68.60;;;;;;5063357;28;20543;-79
2021/06/03 00:50:11;;;;;;;29.57;27.87;;;17.70;69.20;;;;;;5063823;28;20453;-79
2021/06/03 00:52:38;;;;;;;29.87;28.20;;;17.60;69.40;;;;;;5058226;28;20538;-79
2021/06/03 00:55:08;;;;;;;29.40;27.70;;;17.50;69.80;;;;;;5062749;28;20982;-79
2021/06/03 00:57:35;;;;;;;31.00;29.00;;;17.50;70.00;;;;;;5056543;28;20500;-79
2021/06/03 01:00:01;;;;;;;29.60;27.80;;;17.50;70.10;;;;;;5064985;28;20521;-79
2021/06/03 01:02:28;;;;;;;30.70;28.90;;;17.50;70.30;;;;;;5058258;28;20576;-79
2021/06/03 01:04:54;;;;;;;30.60;28.83;;;17.50;70.30;;;;;;5056617;28;20451;-79
2021/06/03 01:07:21;;;;;;;30.67;28.87;;;17.50;70.50;;;;;;5058590;28;20475;-79
2021/06/03 01:09:56;;;;;;;30.43;28.63;;;17.50;70.60;;;;;;5066688;28;20526;-79
2021/06/03 01:12:32;;;;;;;30.33;28.53;;;17.40;70.90;;;;;;5074309;28;20482;-79
2021/06/03 01:15:04;;;;;;;31.63;29.73;;;17.30;71.30;;;;;;5067785;28;20474;-79
2021/06/03 01:17:31;;;;;;;30.50;28.70;;;17.30;71.40;;;;;;5056896;28;20454;-79
2021/06/03 01:19:59;;;;;;;30.80;28.90;;;17.30;71.20;;;;;;5070429;28;20569;-79
2021/06/03 01:22:39;;;;;;;31.33;29.30;;;17.30;71.40;;;;;;5071317;28;20484;-79
2021/06/03 01:25:09;;;;;;;30.30;28.53;;;17.30;71.50;;;;;;5071114;28;20458;-79
2021/06/03 01:27:36;;;;;;;30.60;28.80;;;17.30;71.70;;;;;;5067578;28;20465;-79
2021/06/03 01:30:09;;;;;;;31.63;29.63;;;17.20;72.00;;;;;;5066384;28;20455;-79
2021/06/03 01:32:39;;;;;;;29.87;28.17;;;17.10;72.20;;;;;;5055733;28;20479;-79
2021/06/03 01:35:08;;;;;;;30.67;28.80;;;17.10;72.50;;;;;;5067665;28;20458;-79
2021/06/03 01:37:36;;;;;;;31.40;29.40;;;17.00;72.70;;;;;;5064493;28;20554;-79
2021/06/03 01:40:04;;;;;;;31.43;29.47;;;17.10;72.50;;;;;;5064039;28;20573;-79
2021/06/03 01:42:32;;;;;;;31.30;29.40;;;17.10;72.50;;;;;;5060348;28;20479;-79
2021/06/03 01:45:00;;;;;;;30.57;28.77;;;17.00;72.70;;;;;;5064144;28;20535;-79
2021/06/03 01:47:27;;;;;;;31.37;29.47;;;17.00;73.00;;;;;;5075602;28;20605;-79
2021/06/03 01:49:54;;;;;;;31.60;29.50;;;17.00;73.00;;;;;;5066500;28;20463;-79
2021/06/03 01:52:21;;;;;;;31.70;29.70;;;17.00;73.00;;;;;;5073141;28;20524;-79
2021/06/03 01:54:47;;;;;;;31.10;29.20;;;17.10;73.00;;;;;;5079336;28;20478;-79
2021/06/03 01:57:14;;;;;;;31.07;29.27;;;17.10;73.00;;;;;;5072579;28;20501;-79
2021/06/03 01:59:42;;;;;;;31.03;29.23;;;17.00;73.10;;;;;;5067778;28;20558;-80
2021/06/03 02:02:08;;;;;;;30.07;28.27;;;17.00;73.50;;;;;;5052532;28;20489;-80
2021/06/03 02:04:34;;;;;;;30.77;29.03;;;16.90;73.60;;;;;;5055641;28;20475;-80
2021/06/03 02:07:01;;;;;;;31.33;29.53;;;16.90;73.80;;;;;;5064460;28;21035;-79
2021/06/03 02:09:27;;;;;;;30.60;28.77;;;16.90;73.70;;;;;;5061844;28;20443;-80
2021/06/03 02:11:54;;;;;;;30.90;29.00;;;16.90;74.00;;;;;;5062018;28;21019;-80
2021/06/03 02:14:24;;;;;;;30.93;28.93;;;16.80;74.10;;;;;;5065889;28;20495;-79
2021/06/03 02:16:55;;;;;;;30.70;28.80;;;16.90;74.10;;;;;;5052555;28;20549;-80
2021/06/03 02:19:25;;;;;;;30.80;29.00;;;16.90;74.10;;;;;;5048643;28;20550;-80
2021/06/03 02:21:54;;;;;;;31.00;29.30;;;16.90;74.00;;;;;;5068299;28;20450;-79
2021/06/03 02:24:21;;;;;;;30.60;28.90;;;16.90;74.20;;;;;;5080383;28;20447;-79
2021/06/03 02:26:49;;;;;;;31.60;29.80;;;16.90;74.00;;;;;;5060761;28;20463;-79
2021/06/03 02:29:16;;;;;;;30.60;28.60;;;16.90;73.90;;;;;;5057186;28;20533;-79
2021/06/03 02:31:43;;;;;;;31.27;29.47;;;16.90;74.20;;;;;;5072951;28;21003;-79
2021/06/03 02:34:11;;;;;;;30.90;29.10;;;16.90;74.20;;;;;;5072054;28;20468;-79
2021/06/03 02:36:37;;;;;;;30.27;28.57;;;16.90;74.60;;;;;;5060997;28;21051;-79
2021/06/03 02:39:06;;;;;;;30.97;29.17;;;16.90;74.60;;;;;;5057045;28;20571;-79
2021/06/03 02:41:32;;;;;;;30.97;28.97;;;16.90;74.60;;;;;;5056819;28;20528;-79
2021/06/03 02:43:59;;;;;;;31.17;29.30;;;17.00;74.40;;;;;;5057366;28;20554;-79
2021/06/03 02:46:26;;;;;;;30.43;28.63;;;17.00;74.20;;;;;;5062140;28;20498;-79
2021/06/03 02:48:52;;;;;;;30.27;28.47;;;17.00;74.60;;;;;;5062560;28;20538;-79
2021/06/03 02:51:21;;;;;;;30.30;28.40;;;16.90;74.80;;;;;;5065721;28;20462;-79
2021/06/03 02:53:48;;;;;;;30.10;28.40;;;17.00;74.70;;;;;;5074644;28;20514;-79
2021/06/03 02:56:15;;;;;;;30.90;28.90;;;17.00;74.50;;;;;;5056734;28;20463;-79
2021/06/03 02:58:42;;;;;;;30.20;28.50;;;17.00;74.50;;;;;;5055973;28;20499;-79
2021/06/03 03:01:08;;;;;;;30.43;28.53;;;17.00;74.40;;;;;;5061289;28;20494;-79
2021/06/03 03:03:35;;;;;;;30.00;28.40;;;17.00;74.50;;;;;;5053514;28;21260;-80
2021/06/03 03:06:01;;;;;;;32.60;30.80;;;17.10;74.60;;;;;;5055739;28;20459;-79
2021/06/03 03:08:29;;;;;;;30.20;28.50;;;17.00;75.00;;;;;;5053082;28;20573;-79
2021/06/03 03:10:57;;;;;;;30.30;28.50;;;17.00;75.00;;;;;;5064072;28;20497;-79
2021/06/03 03:13:24;;;;;;;30.67;28.87;;;17.00;75.00;;;;;;5051758;28;20582;-79
2021/06/03 03:15:50;;;;;;;29.87;28.17;;;17.10;74.90;;;;;;5063803;28;20463;-79
2021/06/03 03:18:17;;;;;;;30.80;28.90;;;17.10;75.00;;;;;;5053716;28;20463;-79
2021/06/03 03:20:44;;;;;;;30.93;29.03;;;17.10;75.00;;;;;;5053166;28;20474;-78
2021/06/03 03:23:12;;;;;;;30.50;28.80;;;17.10;75.20;;;;;;5051958;28;20543;-78
2021/06/03 03:25:40;;;;;;;30.70;28.83;;;17.10;75.30;;;;;;5062294;28;20548;-78
2021/06/03 03:28:08;;;;;;;30.00;28.30;;;17.10;75.50;;;;;;5067158;28;20485;-78
2021/06/03 03:30:40;;;;;;;29.93;28.17;;;17.20;75.40;;;;;;5060281;28;20484;-79
2021/06/03 03:33:07;;;;;;;30.00;28.33;;;17.20;75.30;;;;;;5067058;28;20519;-79
2021/06/03 03:35:34;;;;;;;30.17;28.47;;;17.20;75.40;;;;;;5051697;28;20593;-79
2021/06/03 03:38:01;;;;;;;30.17;28.47;;;17.30;75.20;;;;;;5067541;28;20461;-79
2021/06/03 03:40:28;;;;;;;31.83;29.93;;;17.40;75.10;;;;;;5055033;28;20814;-79
2021/06/03 03:42:56;;;;;;;30.73;28.93;;;17.40;75.00;;;;;;5076488;28;20903;-79
2021/06/03 03:45:24;;;;;;;30.17;28.37;;;17.30;75.30;;;;;;5062569;28;20544;-79
2021/06/03 03:47:51;;;;;;;29.40;27.80;;;17.30;74.90;;;;;;5057591;28;20858;-79
2021/06/03 03:50:18;;;;;;;30.33;28.63;;;17.40;74.70;;;;;;5052028;28;20471;-79
2021/06/03 03:52:45;;;;;;;30.37;28.60;;;17.50;74.40;;;;;;5049948;28;20484;-79
2021/06/03 03:55:13;;;;;;;30.43;28.37;;;17.70;74.00;;;;;;5065328;28;20560;-79
2021/06/03 03:57:41;;;;;;;29.73;28.03;;;17.90;73.30;;;;;;5052430;28;20461;-79
2021/06/03 04:00:11;;;;;;;29.97;28.17;;;18.10;72.80;;;;;;5053454;28;20476;-79
2021/06/03 04:02:38;;;;;;;30.67;28.57;;;18.30;72.20;;;;;;5054377;28;20585;-79
2021/06/03 04:05:06;;;;;;;30.10;28.40;;;18.40;71.80;;;;;;5051053;28;20537;-79
2021/06/03 04:07:33;;;;;;;29.50;27.80;;;18.50;71.60;;;;;;5065354;28;20576;-79
2021/06/03 04:09:59;;;;;;;29.57;27.87;;;18.40;72.00;;;;;;5065169;28;20971;-79
2021/06/03 04:12:26;;;;;;;30.77;28.73;;;18.20;72.40;;;;;;5050714;28;20516;-79
2021/06/03 04:14:53;;;;;;;30.63;28.93;;;18.10;72.80;;;;;;5050351;28;20501;-79
2021/06/03 04:17:21;;;;;;;29.40;27.80;;;18.10;72.90;;;;;;5067089;28;20462;-79
2021/06/03 04:19:47;;;;;;;30.57;28.77;;;18.20;72.60;;;;;;5065518;28;20492;-79
2021/06/03 04:22:13;;;;;;;29.87;28.17;;;18.30;72.40;;;;;;5059232;28;20485;-79
2021/06/03 04:24:40;;;;;;;29.47;27.50;;;18.20;72.50;;;;;;5053279;28;20607;-79
2021/06/03 04:27:07;;;;;;;30.17;28.47;;;18.10;73.00;;;;;;5067526;28;20633;-79
2021/06/03 04:29:34;;;;;;;29.50;27.80;;;17.90;73.90;;;;;;5058181;28;20445;-79
2021/06/03 04:32:00;;;;;;;30.33;28.63;;;17.80;74.30;;;;;;5052176;28;20717;-79
2021/06/03 04:34:28;;;;;;;31.10;29.20;;;17.60;75.00;;;;;;5060054;28;20475;-79
2021/06/03 04:36:55;;;;;;;30.60;28.80;;;17.70;75.00;;;;;;5065974;28;20459;-79
2021/06/03 04:39:21;;;;;;;30.20;28.23;;;17.80;74.80;;;;;;5058825;28;20876;-79
2021/06/03 04:41:48;;;;;;;30.87;28.50;;;17.90;74.90;;;;;;5065835;28;20551;-79
2021/06/03 04:44:14;;;;;;;29.97;27.97;;;17.90;74.80;;;;;;5054264;28;20450;-79
2021/06/03 04:46:41;;;;;;;30.17;28.43;;;18.00;74.80;;;;;;5046852;28;20473;-80
2021/06/03 04:49:07;;;;;;;29.97;28.17;;;18.00;74.60;;;;;;5053312;28;20455;-79
2021/06/03 04:51:38;;;;;;;28.70;27.07;;;18.10;74.50;;;;;;5055697;28;20549;-80
2021/06/03 04:54:05;;;;;;;31.00;29.10;;;18.20;74.40;;;;;;5044849;28;20470;-79
2021/06/03 04:56:32;;;;;;;30.73;29.03;;;18.20;74.40;;;;;;5062008;28;20921;-79
2021/06/03 04:58:58;;;;;;;29.20;27.50;;;18.40;74.10;;;;;;5074989;28;20554;-79
2021/06/03 05:01:25;;;;;;;30.20;28.50;;;18.40;74.10;;;;;;5060376;28;20580;-79
2021/06/03 05:03:51;;;;;;;30.27;28.30;;;18.50;74.10;;;;;;5055982;28;20629;-79
2021/06/03 05:06:18;;;;;;;30.87;28.80;;;18.60;73.80;;;;;;5073338;28;20464;-79
2021/06/03 05:08:46;;;;;;;30.77;28.97;;;18.60;73.60;;;;;;5070880;28;20893;-79
2021/06/03 05:11:12;;;;;;;29.90;28.03;;;18.60;73.70;;;;;;5064618;28;20450;-79
2021/06/03 05:13:39;;;;;;;29.97;28.27;;;18.60;73.90;;;;;;5056545;28;20899;-79
2021/06/03 05:16:07;;;;;;;29.77;27.97;;;18.80;73.20;;;;;;5056411;28;20752;-79
2021/06/03 05:18:33;;;;;;;31.10;29.30;;;19.00;73.20;;;;;;5058866;28;20485;-79
2021/06/03 05:21:00;;;;;;;30.13;28.20;;;19.10;72.90;;;;;;5068043;28;20567;-79
2021/06/03 05:23:27;;;;;;;30.03;28.33;;;19.20;72.90;;;;;;5067610;28;20481;-85
2021/06/03 05:25:55;;;;;;;31.93;30.13;;;19.40;72.30;;;;;;5061015;28;20469;-80
2021/06/03 05:28:21;;;;;;;31.30;29.50;;;19.40;72.10;;;;;;5054689;28;20463;-76
2021/06/03 05:30:48;;;;;;;30.77;28.97;;;19.50;72.20;;;;;;5056245;28;20901;-79
2021/06/03 05:33:14;;;;;;;30.50;28.70;;;19.60;72.30;;;;;;5068273;28;20486;-79
2021/06/03 05:35:41;;;;;;;33.03;31.00;;;19.80;72.00;;;;;;5063930;28;20568;-79
2021/06/03 05:38:07;;;;;;;34.40;32.23;;;19.90;71.70;;;;;;5053936;28;20515;-79
2021/06/03 05:40:34;;;;;;;30.87;29.00;;;20.00;71.20;;;;;;5058900;28;20491;-79
2021/06/03 05:43:02;;;;;;;32.63;30.63;;;20.20;71.10;;;;;;5047918;28;20478;-77
2021/06/03 05:45:30;;;;;;;29.50;27.70;;;20.50;70.30;;;;;;5056273;28;20530;-78
2021/06/03 05:47:56;;;;;;;30.13;28.33;;;20.70;69.90;;;;;;5067010;28;20492;-78
2021/06/03 05:50:25;;;;;;;29.40;27.80;;;21.00;69.10;;;;;;5047619;28;20607;-78
2021/06/03 05:52:52;;;;;;;30.20;28.50;;;21.30;68.00;;;;;;5047962;28;20482;-77
2021/06/03 05:55:19;;;;;;;32.80;30.80;;;21.50;67.50;;;;;;5052724;28;20508;-80
2021/06/03 05:57:46;;;;;;;30.07;28.27;;;21.80;66.40;;;;;;5061543;28;20483;-77
2021/06/03 06:00:16;;;;;;;30.80;29.10;;;21.80;66.70;;;;;;5057766;28;20648;-76
2021/06/03 06:02:49;;;;;;;30.57;28.87;;;21.90;66.40;;;;;;5060382;28;20560;-77
2021/06/03 06:08:02;;;;;;;30.50;28.77;;;22.00;66.10;;;;;;5069000;28;20445;-81
2021/06/03 06:10:29;;;;;;;30.03;28.13;;;22.00;66.80;;;;;;5065009;28;20451;-82
2021/06/03 06:12:56;;;;;;;30.73;28.93;;;22.10;66.70;;;;;;5051609;28;20479;-81
2021/06/03 06:15:24;;;;;;;32.63;30.73;;;22.20;66.30;;;;;;5056592;28;20462;-82
2021/06/03 06:17:51;;;;;;;30.20;28.50;;;22.20;66.60;;;;;;5048705;28;20496;-82
2021/06/03 06:20:18;;;;;;;32.00;30.20;;;22.20;66.80;;;;;;5062422;28;21043;-83
2021/06/03 06:22:44;;;;;;;32.83;30.73;;;22.20;67.00;;;;;;5060362;28;20488;-84
2021/06/03 06:25:12;;;;;;;30.50;28.77;;;22.40;66.70;;;;;;5067145;28;20680;-81
2021/06/03 06:27:39;;;;;;;30.77;28.97;;;22.40;66.40;;;;;;5062572;28;20523;-83
2021/06/03 06:30:09;;;;;;;29.93;28.03;;;22.50;66.40;;;;;;5058464;28;20534;-82
2021/06/03 06:32:37;;;;;;;30.30;28.50;;;22.50;66.70;;;;;;5070143;28;20542;-82
2021/06/03 06:35:05;;;;;;;29.80;27.83;;;22.60;66.50;;;;;;5053007;28;20439;-80
2021/06/03 06:37:34;;;;;;;29.00;27.30;;;22.60;66.10;;;;;;5059083;28;20461;-83
2021/06/03 06:40:02;;;;;;;29.17;27.50;;;22.70;65.90;;;;;;5057013;28;20553;-81
2021/06/03 06:42:30;;;;;;;28.50;26.90;;;22.60;66.30;;;;;;5062584;28;20486;-78
2021/06/03 06:44:58;;;;;;;30.67;28.87;;;22.70;65.90;;;;;;5055455;28;20461;-78
2021/06/03 06:47:24;;;;;;;29.57;27.97;;;22.80;65.80;;;;;;5053110;28;20467;-78
2021/06/03 06:49:52;;;;;;;29.37;27.77;;;23.00;65.50;;;;;;5055671;28;20462;-80
2021/06/03 06:52:19;;;;;;;31.83;29.73;;;23.00;65.80;;;;;;5062203;28;20488;-79
2021/06/03 06:54:47;;;;;;;29.53;27.83;;;23.10;65.60;;;;;;5067771;28;20552;-81
2021/06/03 06:57:13;;;;;;;29.97;28.23;;;23.10;66.00;;;;;;5065054;28;20506;-83
2021/06/03 06:59:40;;;;;;;28.80;27.10;;;23.00;65.80;;;;;;5060455;28;21304;-81
2021/06/03 07:02:07;;;;;;;29.10;27.50;;;23.00;66.20;;;;;;5060002;28;20478;-82
2021/06/03 07:04:33;;;;;;;28.67;27.07;;;23.00;66.40;;;;;;5056853;28;20463;-82
2021/06/03 07:07:01;;;;;;;29.10;27.30;;;23.00;66.10;;;;;;5052817;28;20467;-83
2021/06/03 07:09:28;;;;;;;29.93;27.97;;;23.20;65.90;;;;;;5052725;28;20460;-78
2021/06/03 07:11:54;;;;;;;30.17;28.10;;;23.20;65.50;;;;;;5071141;28;20569;-79
2021/06/03 07:14:20;;;;;;;29.07;27.33;;;23.30;65.00;;;;;;5067593;28;20541;-82
2021/06/03 07:16:47;;;;;;;30.10;28.10;;;23.40;65.20;;;;;;5058703;28;20463;-80
2021/06/03 07:19:13;;;;;;;30.17;28.07;;;23.40;65.10;;;;;;5055389;28;20464;-81
2021/06/03 07:21:40;;;;;;;28.93;27.23;;;23.30;65.20;;;;;;5077653;28;20942;-82
2021/06/03 07:24:11;;;;;;;28.97;27.23;;;23.30;65.40;;;;;;5063638;28;20494;-81
2021/06/03 07:26:44;;;;;;;28.67;27.07;;;23.20;65.40;;;;;;5059967;28;20458;-81
2021/06/03 07:29:13;;;;;;;28.60;27.00;;;23.10;65.50;;;;;;5058064;28;20566;-80
2021/06/03 07:31:40;;;;;;;28.93;27.23;;;23.50;64.70;;;;;;5055145;28;21026;-80
2021/06/03 07:34:07;;;;;;;29.03;27.33;;;23.60;63.90;;;;;;5061715;28;21224;-84
2021/06/03 07:36:34;;;;;;;29.17;27.53;;;23.80;63.60;;;;;;5065424;28;20940;-85
2021/06/03 07:39:03;;;;;;;31.70;29.67;;;23.70;63.60;;;;;;5064535;28;20465;-82
2021/06/03 07:41:31;;;;;;;29.67;27.67;;;23.90;62.60;;;;;;5061693;28;20477;-85
2021/06/03 07:43:58;;;;;;;35.50;31.90;;;23.90;62.70;;;;;;5060014;28;20504;-83
2021/06/03 07:46:24;;;;;;;32.30;30.10;;;23.90;62.50;;;;;;5053663;28;20610;-87
2021/06/03 07:48:53;;;;;;;39.93;36.03;;;24.00;62.30;;;;;;5067190;28;20477;-80
2021/06/03 07:51:20;;;;;;;32.43;30.23;;;24.10;62.20;;;;;;5054827;28;20560;-82
2021/06/03 07:53:46;;;;;;;30.80;28.90;;;24.20;61.40;;;;;;5049338;28;20525;-83
2021/06/03 07:56:13;;;;;;;29.60;27.97;;;24.10;61.30;;;;;;5060865;28;20450;-83
2021/06/03 07:58:41;;;;;;;30.53;28.63;;;24.20;61.40;;;;;;5054290;28;20457;-83
2021/06/03 08:01:07;;;;;;;30.10;28.20;;;24.20;61.50;;;;;;5052796;28;20518;-85
2021/06/03 08:03:34;;;;;;;32.40;30.30;;;24.00;62.00;;;;;;5062769;28;20478;-84
2021/06/03 08:06:01;;;;;;;30.20;28.40;;;24.10;62.10;;;;;;5067774;28;20458;-84
2021/06/03 08:08:27;;;;;;;30.10;28.30;;;24.20;61.60;;;;;;5058453;28;20497;-83
2021/06/03 08:10:54;;;;;;;29.37;27.50;;;24.20;61.50;;;;;;5068500;28;21127;-84
2021/06/03 08:13:20;;;;;;;29.03;27.17;;;24.30;61.50;;;;;;5053891;28;20487;-83
2021/06/03 08:15:48;;;;;;;30.10;28.30;;;24.40;60.90;;;;;;5055760;28;20458;-83
2021/06/03 08:18:15;;;;;;;28.80;27.10;;;24.70;59.90;;;;;;5049765;28;20587;-84
2021/06/03 08:20:44;;;;;;;30.40;28.30;;;24.90;59.10;;;;;;5056401;28;20569;-84
2021/06/03 08:23:12;;;;;;;29.13;27.40;;;25.10;59.50;;;;;;5054167;28;20662;-83
2021/06/03 08:25:38;;;;;;;28.30;26.70;;;25.50;58.10;;;;;;5053377;28;20558;-83
2021/06/03 08:28:05;;;;;;;28.07;26.27;;;25.60;57.20;;;;;;5061703;28;20564;-84
2021/06/03 08:30:34;;;;;;;29.07;27.47;;;25.60;56.90;;;;;;5058198;28;20981;-84
2021/06/03 08:33:03;;;;;;;28.00;26.40;;;25.60;56.70;;;;;;5061381;28;20490;-84
2021/06/03 08:35:29;;;;;;;27.80;26.20;;;25.60;57.00;;;;;;5057011;28;20465;-83
2021/06/03 08:37:58;;;;;;;27.50;25.90;;;25.60;56.90;;;;;;5067521;28;20485;-84
2021/06/03 08:40:28;;;;;;;29.20;27.23;;;25.70;56.70;;;;;;5065395;28;20911;-83
2021/06/03 08:42:56;;;;;;;27.77;26.07;;;25.70;56.00;;;;;;5058244;28;20478;-84
2021/06/03 08:45:24;;;;;;;30.17;28.27;;;25.80;56.10;;;;;;5056332;28;20462;-84
2021/06/03 08:47:52;;;;;;;30.93;29.03;;;26.00;55.70;;;;;;5061343;28;20472;-84
2021/06/03 08:50:21;;;;;;;29.80;28.00;;;26.20;55.80;;;;;;5062293;28;20463;-83
2021/06/03 08:52:47;;;;;;;30.20;28.40;;;26.40;55.70;;;;;;5056621;28;20540;-83
2021/06/03 08:57:57;;;;;;;29.00;27.30;;;26.90;54.70;;;;;;5057010;28;21040;-82
2021/06/03 09:00:24;;;;;;;29.90;28.20;;;27.20;54.20;;;;;;5060751;28;20569;-82
2021/06/03 09:02:50;;;;;;;30.43;28.73;;;27.40;53.90;;;;;;5058242;28;20907;-82
2021/06/03 09:05:17;;;;;;;30.40;28.40;;;27.70;52.90;;;;;;5052612;28;20472;-83
2021/06/03 09:07:45;;;;;;;28.13;26.53;;;27.70;51.80;;;;;;5047136;28;20471;-82
2021/06/03 09:10:27;;;;;;;29.10;27.40;;;27.60;52.10;;;;;;5058380;28;20457;-84
2021/06/03 09:13:08;;;;;;;28.43;26.70;;;27.20;52.50;;;;;;5061981;28;20600;-84
2021/06/03 09:15:35;;;;;;;28.20;26.60;;;27.00;52.80;;;;;;5060460;28;20461;-84
2021/06/03 09:18:03;;;;;;;29.90;27.90;;;26.80;53.40;;;;;;5056401;28;20470;-84
2021/06/03 09:20:29;;;;;;;29.70;27.90;;;26.80;53.50;;;;;;5051515;28;20510;-84
2021/06/03 09:22:57;;;;;;;27.80;26.20;;;26.80;53.50;;;;;;5057622;28;21068;-83
2021/06/03 09:25:36;;;;;;;28.60;27.00;;;26.90;53.20;;;;;;5056675;28;20839;-83
2021/06/03 09:28:29;;;;;;;28.03;26.43;;;26.90;53.50;;;;;;5051009;28;20652;-83
2021/06/03 09:31:02;;;;;;;28.00;26.30;;;26.80;53.40;;;;;;5059205;28;20975;-84
2021/06/03 09:33:36;;;;;;;27.83;26.13;;;26.90;53.30;;;;;;5058811;28;20879;-84
2021/06/03 09:36:04;;;;;;;28.97;27.17;;;26.90;53.50;;;;;;5055327;28;20576;-84
2021/06/03 09:38:32;;;;;;;35.70;33.90;;;27.10;53.30;;;;;;5053513;28;20482;-82
2021/06/03 09:40:59;;;;;;;30.07;28.17;;;27.20;53.10;;;;;;5054206;28;20793;-80
2021/06/03 09:43:25;;;;;;;29.07;27.37;;;27.20;53.00;;;;;;5054996;28;20601;-82
2021/06/03 09:45:54;;;;;;;28.90;27.20;;;27.30;53.20;;;;;;5056970;28;20485;-81
2021/06/03 09:48:40;;;;;;;28.77;26.90;;;27.60;53.70;;;;;;5062929;28;20553;-81
2021/06/03 09:51:25;;;;;;;29.40;27.70;;;28.10;52.50;;;;;;5053152;28;20455;-81
2021/06/03 09:54:00;;;;;;;29.03;27.33;;;28.40;51.80;;;;;;5065459;28;20505;-81
2021/06/03 09:56:28;;;;;;;28.60;26.83;;;28.50;51.30;;;;;;5061797;28;20733;-83
2021/06/03 09:58:55;;;;;;;28.87;27.07;;;28.50;51.40;;;;;;5066732;28;20455;-82
2021/06/03 10:01:40;;;;;;;31.70;29.90;;;28.80;51.00;;;;;;5065024;28;20486;-82
2021/06/03 10:04:07;;;;;;;29.70;27.83;;;29.00;50.50;;;;;;5067901;28;20449;-83
2021/06/03 10:06:33;;;;;;;30.10;28.20;;;29.00;50.70;;;;;;5071537;28;20517;-82
2021/06/03 10:09:01;;;;;;;28.30;26.60;;;28.90;50.50;;;;;;5066802;28;20454;-81
2021/06/03 10:11:49;;;;;;;28.50;26.70;;;29.00;49.10;;;;;;5058318;28;20507;-82
2021/06/03 10:14:17;;;;;;;28.03;26.30;;;29.30;48.80;;;;;;5069702;28;20458;-82
2021/06/03 10:16:44;;;;;;;30.17;28.27;;;29.30;48.70;;;;;;5074111;28;20517;-83
2021/06/03 10:19:18;;;;;;;30.10;28.33;;;29.20;48.80;;;;;;5069396;28;20485;-81
2021/06/03 10:21:45;;;;;;;28.13;26.43;;;29.40;48.40;;;;;;5061150;28;20474;-81
2021/06/03 10:24:13;;;;;;;28.23;26.43;;;29.40;47.10;;;;;;5059286;28;20507;-81
2021/06/03 10:26:55;;;;;;;28.63;26.93;;;29.70;46.80;;;;;;5064959;28;20458;-82
2021/06/03 10:29:22;;;;;;;30.57;28.57;;;30.00;46.50;;;;;;5063750;28;20532;-81
2021/06/03 10:31:48;;;;;;;28.77;27.00;;;30.00;46.20;;;;;;5057874;28;20455;-82
2021/06/03 10:34:17;;;;;;;27.10;25.60;;;30.10;46.20;;;;;;5064885;28;20500;-85
2021/06/03 10:36:45;;;;;;;28.13;26.53;;;30.10;45.30;;;;;;5055694;28;20826;-83
2021/06/03 10:39:13;;;;;;;29.17;27.47;;;30.00;45.10;;;;;;5056741;28;20490;-83
2021/06/03 10:41:39;;;;;;;28.50;26.80;;;30.10;45.00;;;;;;5057355;28;20995;-82
2021/06/03 10:44:07;;;;;;;28.63;27.03;;;29.90;45.70;;;;;;5052050;28;20551;-83
2021/06/03 10:46:35;;;;;;;29.77;27.97;;;29.90;45.80;;;;;;5050570;28;20561;-83
2021/06/03 10:49:01;;;;;;;28.63;26.93;;;30.10;46.00;;;;;;5057431;28;20483;-83
2021/06/03 10:51:28;;;;;;;29.83;28.03;;;30.30;45.80;;;;;;5052390;28;20455;-83
2021/06/03 10:53:54;;;;;;;28.20;26.60;;;30.40;45.50;;;;;;5062054;28;20513;-83
2021/06/03 10:56:26;;;;;;;28.07;26.33;;;30.50;45.30;;;;;;5059362;28;20464;-83
2021/06/03 10:58:53;;;;;;;27.70;26.10;;;30.50;44.30;;;;;;5054616;28;21126;-83
2021/06/03 11:01:21;;;;;;;28.20;26.53;;;30.50;44.10;;;;;;5049189;28;20479;-83
2021/06/03 11:03:50;;;;;;;28.17;26.47;;;30.70;43.40;;;;;;5056211;28;20593;-84
2021/06/03 11:06:18;;;;;;;28.60;27.00;;;30.60;44.00;;;;;;5049357;28;20540;-84
2021/06/03 11:08:46;;;;;;;29.20;27.40;;;30.70;44.30;;;;;;5048369;28;20457;-84
2021/06/03 11:11:27;;;;;;;27.90;26.30;;;30.90;44.10;;;;;;5053592;28;20574;-84
2021/06/03 11:14:11;;;;;;;28.50;26.80;;;31.00;43.00;;;;;;5064684;28;20482;-84
2021/06/03 11:16:49;;;;;;;28.47;26.87;;;31.10;43.40;;;;;;5047256;28;20477;-84
2021/06/03 11:19:16;;;;;;;29.27;27.57;;;31.20;43.80;;;;;;5043567;28;20462;-84
2021/06/03 11:22:03;;;;;;;31.93;30.03;;;31.20;43.40;;;;;;5052181;28;20692;-84
2021/06/03 11:24:46;;;;;;;29.07;27.17;;;31.20;43.70;;;;;;5046461;28;20450;-84
2021/06/03 11:27:36;;;;;;;27.50;25.73;;;31.10;42.80;;;;;;5058435;28;20470;-84
2021/06/03 11:30:11;;;;;;;29.23;27.47;;;30.60;46.70;;;;;;5047896;28;21072;-84
2021/06/03 11:32:42;;;;;;;29.47;27.73;;;29.60;49.30;;;;;;5053615;28;20482;-84
2021/06/03 11:35:12;;;;;;;28.60;26.70;;;28.70;51.30;;;;;;5055405;28;21114;-83
2021/06/03 11:37:49;;;;;;;30.30;28.50;;;28.10;52.80;;;;;;5054997;28;20447;-83
2021/06/03 11:40:23;;;;;;;28.47;26.50;;;27.70;54.00;;;;;;5060011;28;20480;-83
2021/06/03 11:43:05;;;;;;;29.20;27.50;;;27.90;53.80;;;;;;5044319;28;20470;-83
2021/06/03 11:45:33;;;;;;;29.60;27.50;;;28.10;53.10;;;;;;5049211;28;20462;-82
2021/06/03 11:48:17;;;;;;;29.93;28.17;;;27.90;52.90;;;;;;5053551;28;20461;-83
2021/06/03 11:50:57;;;;;;;30.43;28.63;;;27.30;54.00;;;;;;5051884;28;20851;-82
2021/06/03 11:53:25;;;;;;;28.53;26.83;;;27.30;53.40;;;;;;5060368;28;20540;-82
2021/06/03 11:55:54;;;;;;;28.57;26.53;;;27.20;54.50;;;;;;5052366;28;20454;-82
2021/06/03 11:58:30;;;;;;;27.90;26.30;;;27.10;54.20;;;;;;5058490;28;20581;-83
2021/06/03 12:01:00;;;;;;;30.30;28.40;;;27.00;54.50;;;;;;5051915;28;20816;-82
2021/06/03 12:03:32;;;;;;;29.10;27.30;;;27.10;54.70;;;;;;5060182;28;20583;-82
2021/06/03 12:06:01;;;;;;;28.47;26.40;;;26.80;55.10;;;;;;5046561;28;20463;-83
2021/06/03 12:08:42;;;;;;;29.73;27.73;;;26.50;55.60;;;;;;5050165;28;20450;-82
2021/06/03 12:11:11;;;;;;;29.83;28.03;;;26.00;56.40;;;;;;5057017;28;20450;-82
2021/06/03 12:13:39;;;;;;;28.00;26.40;;;25.70;57.10;;;;;;5066029;28;20558;-82
2021/06/03 12:16:06;;;;;;;28.80;27.10;;;25.70;57.70;;;;;;5055453;28;20458;-82
2021/06/03 12:18:36;;;;;;;28.77;27.07;;;25.70;57.70;;;;;;5061391;28;20523;-83
2021/06/03 12:21:03;;;;;;;28.83;27.03;;;25.80;57.60;;;;;;5058200;28;21094;-83
2021/06/03 12:23:30;;;;;;;28.60;26.90;;;25.80;57.70;;;;;;5058805;28;20561;-84
2021/06/03 12:25:57;;;;;;;30.70;28.70;;;25.60;57.80;;;;;;5046521;28;20473;-82
2021/06/03 12:28:23;;;;;;;28.83;27.13;;;25.80;57.60;;;;;;5057165;28;20465;-82
2021/06/03 12:30:51;;;;;;;29.80;28.10;;;26.00;57.70;;;;;;5060886;28;21153;-82
2021/06/03 12:33:24;;;;;;;28.83;27.13;;;26.40;56.90;;;;;;5054006;28;20489;-82
2021/06/03 12:35:55;;;;;;;28.93;27.23;;;26.60;56.40;;;;;;5054113;28;20458;-82
2021/06/03 12:38:32;;;;;;;30.30;28.47;;;26.70;56.40;;;;;;5061255;28;20478;-81
2021/06/03 12:41:03;;;;;;;32.93;30.50;;;27.00;57.60;;;;;;5060311;28;20541;-80